Time;durP1;ratioP1;P1;durP2;ratioP2;P2;SDS_P1;SDS_P2;PMS_P1;PMS_P2;Temp;Humidity;BMP_temperature;BMP_pressure;BME280_temperature;BME280_humidity;BME280_pressure;Samples;Min_cycle;Max_cycle;Signal;HPM_P1;HPM_P2
2022/08/02 03:37:59;;;;;;;6.38;2.65;;;;;;;13.36;75.73;101645.22;4927148;29;20082;-87
2022/08/02 06:10:27;;;;;;;6.87;5.13;;;;;;;18.69;68.46;101649.31;5033483;23;20309;-86
2022/08/02 06:13:06;;;;;;;10.07;5.47;;;;;;;18.90;68.03;101645.22;5012094;28;20049;-86
2022/08/02 06:15:33;;;;;;;9.55;6.25;;;;;;;18.76;68.88;101642.44;5010874;28;20110;-87
2022/08/02 06:17:58;;;;;;;11.05;5.70;;;;;;;18.79;68.53;101642.94;5016839;28;20026;-87
2022/08/02 06:20:26;;;;;;;10.13;5.60;;;;;;;19.01;68.91;101645.91;5011619;28;20030;-85
2022/08/02 06:22:53;;;;;;;7.65;4.93;;;;;;;19.19;68.11;101646.97;5012972;28;20075;-86
2022/08/02 06:25:23;;;;;;;10.95;5.35;;;;;;;19.16;68.62;101653.00;5011300;28;20037;-86
2022/08/02 06:27:49;;;;;;;10.60;5.63;;;;;;;19.10;69.55;101650.66;5012319;28;20032;-87
2022/08/02 06:32:51;;;;;;;6.18;4.95;;;;;;;19.04;69.23;101629.03;5318110;23;20050;-82
2022/08/02 07:35:14;;;;;;;9.98;5.88;;;;;;;21.62;66.00;101624.78;5211501;23;20038;-82
2022/08/02 08:31:18;;;;;;;5.63;2.10;;;;;;;23.54;55.98;101619.78;6220468;23;20036;-82
2022/08/02 08:40:26;;;;;;;5.47;2.13;;;;;;;24.20;54.34;101596.59;6190281;23;20048;-83
2022/08/02 08:46:47;;;;;;;8.23;2.63;;;;;;;24.64;53.66;101597.06;6069805;23;20070;-85
2022/08/02 09:34:51;;;;;;;3.20;1.75;;;;;;;25.73;45.29;101589.00;6237293;22;20028;-81
2022/08/02 09:37:32;;;;;;;3.08;1.80;;;;;;;25.84;43.88;101595.59;6243476;22;20008;-82
2022/08/02 09:41:02;;;;;;;4.20;1.70;;;;;;;26.22;42.62;101607.38;6244059;23;20047;-82
2022/08/02 09:43:38;;;;;;;2.00;1.30;;;;;;;26.39;42.64;101606.28;6218822;23;20012;-82
2022/08/02 09:46:45;;;;;;;3.63;1.30;;;;;;;26.42;41.54;101600.94;6214695;23;20012;-82
2022/08/02 09:51:56;;;;;;;3.55;1.30;;;;;;;26.35;39.00;101592.47;6242542;23;20047;-82
2022/08/02 09:54:31;;;;;;;2.50;1.33;;;;;;;26.51;40.01;101602.72;6242665;23;20332;-82
2022/08/02 09:57:15;;;;;;;1.85;1.27;;;;;;;26.49;39.06;101605.00;6248492;22;20070;-82
2022/08/02 10:00:21;;;;;;;5.30;1.70;;;;;;;26.78;39.96;101606.63;6246687;23;20000;-83
2022/08/02 10:06:37;;;;;;;2.53;1.70;;;;;;;27.09;37.89;101604.31;6118809;23;20253;-82
2022/08/02 10:09:28;;;;;;;2.03;1.40;;;;;;;26.89;37.21;101596.75;6120257;23;20014;-83
2022/08/02 10:12:37;;;;;;;5.13;1.35;;;;;;;27.05;38.22;101585.78;6213354;23;20008;-83
2022/08/02 10:18:30;;;;;;;2.55;1.23;;;;;;;27.43;36.64;101583.56;6242876;22;20015;-85
2022/08/02 10:21:00;;;;;;;3.42;1.55;;;;;;;27.88;37.03;101599.97;6242961;23;20332;-83
2022/08/02 10:23:37;;;;;;;4.18;1.50;;;;;;;28.14;35.70;101582.84;6242389;23;20004;-83
2022/08/02 10:26:13;;;;;;;3.78;1.77;;;;;;;28.24;35.91;101582.31;6242698;23;20083;-82
2022/08/02 10:28:38;;;;;;;1.40;1.30;;;;;;;28.37;34.27;101587.66;6242325;22;20429;-81
2022/08/02 10:31:06;;;;;;;1.50;1.27;;;;;;;28.31;35.47;101589.09;6243173;23;20071;-82
2022/08/02 10:33:35;;;;;;;4.75;1.40;;;;;;;28.63;35.43;101588.97;6242124;23;20000;-81
2022/08/02 10:36:03;;;;;;;1.23;1.10;;;;;;;28.80;34.51;101587.72;6241483;23;20008;-82
2022/08/02 10:38:28;;;;;;;1.63;1.00;;;;;;;28.81;32.67;101583.81;6242770;22;20246;-82
2022/08/02 10:40:55;;;;;;;1.30;1.20;;;;;;;28.94;32.74;101576.97;6241741;23;20376;-82
2022/08/02 10:43:39;;;;;;;2.53;1.27;;;;;;;29.00;33.13;101596.78;6241531;23;20010;-82
2022/08/02 10:46:26;;;;;;;1.70;1.40;;;;;;;29.04;33.51;101589.34;6242515;23;20004;-83
2022/08/02 10:49:08;;;;;;;1.70;1.20;;;;;;;28.87;33.63;101593.38;6242930;23;20018;-83
2022/08/02 10:52:04;;;;;;;2.90;1.47;;;;;;;29.00;34.14;101581.00;6242363;23;20231;-82
2022/08/02 10:54:41;;;;;;;3.22;1.20;;;;;;;28.93;33.93;101580.09;6200849;23;20027;-83
2022/08/02 10:57:17;;;;;;;1.42;1.33;;;;;;;28.76;33.63;101589.66;6241945;22;20035;-83
2022/08/02 10:59:43;;;;;;;2.20;1.52;;;;;;;28.48;33.68;101590.66;6242593;23;20004;-82
2022/08/02 11:02:10;;;;;;;1.80;1.40;;;;;;;28.45;33.62;101589.41;6242793;23;20011;-82
2022/08/02 11:04:35;;;;;;;2.00;1.10;;;;;;;28.55;32.95;101585.28;6242316;23;20015;-82
2022/08/02 11:07:15;;;;;;;1.97;1.10;;;;;;;28.53;33.35;101585.63;6242662;22;20015;-82
2022/08/02 11:09:42;;;;;;;1.80;0.93;;;;;;;28.70;33.15;101578.88;6242301;23;20263;-82
2022/08/02 11:12:27;;;;;;;1.10;1.00;;;;;;;28.82;31.43;101580.72;6214610;23;20008;-82
2022/08/02 11:15:02;;;;;;;3.28;1.15;;;;;;;28.92;32.16;101571.03;6241500;23;20093;-82
2022/08/02 11:17:51;;;;;;;1.73;1.55;;;;;;;28.97;32.53;101570.72;6242362;22;20094;-82
2022/08/02 11:20:19;;;;;;;3.67;1.00;;;;;;;29.07;32.05;101582.31;6240660;23;20015;-82
2022/08/02 11:22:46;;;;;;;1.42;1.33;;;;;;;29.16;32.59;101578.16;6242884;23;20011;-82
2022/08/02 11:25:23;;;;;;;3.47;1.70;;;;;;;29.43;32.88;101575.44;6213719;23;20625;-82
2022/08/02 11:27:57;;;;;;;1.58;1.40;;;;;;;29.72;32.17;101575.88;6242510;22;20456;-83
2022/08/02 11:30:23;;;;;;;4.15;1.40;;;;;;;29.90;31.05;101569.81;6242127;23;20008;-82
2022/08/02 11:32:49;;;;;;;2.57;1.30;;;;;;;30.12;31.63;101575.66;6242454;23;20004;-82
2022/08/02 11:35:15;;;;;;;2.13;1.60;;;;;;;30.36;30.56;101572.38;6241631;23;20776;-82
2022/08/02 11:37:42;;;;;;;5.45;1.40;;;;;;;30.10;30.26;101581.53;6241594;22;20071;-82
2022/08/02 11:40:11;;;;;;;3.07;1.40;;;;;;;30.06;30.98;101575.97;6242724;23;20023;-82
2022/08/02 11:42:38;;;;;;;3.03;1.20;;;;;;;30.26;30.46;101567.53;6242851;23;20239;-82
2022/08/02 11:45:07;;;;;;;3.05;1.30;;;;;;;30.37;28.44;101562.94;6242719;23;20042;-83
2022/08/02 11:47:32;;;;;;;3.65;1.20;;;;;;;30.33;28.67;101570.38;6243193;22;20012;-83
2022/08/02 11:50:09;;;;;;;4.07;1.33;;;;;;;30.11;28.97;101568.53;6243436;23;20680;-83
2022/08/02 11:52:35;;;;;;;1.85;1.40;;;;;;;29.89;28.44;101571.78;6245237;23;20015;-82
2022/08/02 11:55:01;;;;;;;3.07;1.40;;;;;;;29.99;29.09;101575.88;6251574;23;20760;-81
2022/08/02 11:57:27;;;;;;;5.53;1.63;;;;;;;30.03;29.06;101570.41;6224159;23;20255;-82
2022/08/02 11:59:54;;;;;;;5.93;1.53;;;;;;;30.11;29.45;101569.31;6253934;23;20008;-82
2022/08/02 12:02:34;;;;;;;1.53;1.23;;;;;;;30.25;28.92;101552.13;6253140;23;20240;-82
2022/08/02 12:05:05;;;;;;;3.90;1.08;;;;;;;30.57;28.88;101559.25;6236183;23;20012;-82
2022/08/02 12:07:36;;;;;;;1.75;1.27;;;;;;;31.15;27.95;101560.59;6247462;22;20008;-81
2022/08/02 12:10:08;;;;;;;2.00;1.40;;;;;;;31.47;27.65;101550.94;6246488;23;20031;-81
2022/08/02 12:12:50;;;;;;;4.50;1.40;;;;;;;31.72;27.59;101556.66;6244751;23;20054;-82
2022/08/02 12:15:32;;;;;;;4.15;1.33;;;;;;;31.56;29.29;101559.69;6242856;23;20071;-82
2022/08/02 12:20:42;;;;;;;1.85;1.25;;;;;;;31.82;29.41;101557.91;6243584;23;20501;-83
2022/08/02 12:23:07;;;;;;;2.60;1.23;;;;;;;32.04;28.33;101549.69;6217718;23;20008;-82
2022/08/02 12:25:33;;;;;;;3.97;1.55;;;;;;;31.98;28.29;101550.06;6244867;23;20020;-82
2022/08/02 12:28:16;;;;;;;7.47;1.83;;;;;;;32.16;30.06;101541.03;6245590;22;20035;-82
2022/08/02 12:30:56;;;;;;;2.38;1.52;;;;;;;32.30;29.21;101545.84;6250445;23;20001;-82
2022/08/02 12:33:28;;;;;;;2.65;1.60;;;;;;;32.32;27.30;101547.03;6254803;23;20004;-82
2022/08/02 12:35:55;;;;;;;2.22;1.65;;;;;;;32.09;27.44;101540.97;6229905;22;20042;-83
2022/08/02 12:38:22;;;;;;;2.92;1.60;;;;;;;31.98;28.68;101546.47;6260707;22;20088;-83
2022/08/02 12:40:48;;;;;;;2.63;1.70;;;;;;;31.97;29.53;101544.88;6258061;23;20008;-83
2022/08/02 12:43:19;;;;;;;1.93;1.57;;;;;;;31.77;29.85;101538.88;6260556;23;20099;-82
2022/08/02 12:45:56;;;;;;;2.95;1.58;;;;;;;31.59;30.73;101539.53;6247612;23;20004;-81
2022/08/02 12:48:33;;;;;;;2.22;1.25;;;;;;;31.54;29.46;101537.94;6252638;23;20015;-82
2022/08/02 12:51:16;;;;;;;2.92;1.55;;;;;;;31.35;27.96;101529.91;6223065;23;20012;-81
2022/08/02 12:53:42;;;;;;;3.45;1.42;;;;;;;30.92;29.23;101531.13;6249379;23;20083;-82
2022/08/02 12:56:07;;;;;;;1.53;1.37;;;;;;;30.71;30.00;101528.16;6248371;22;20011;-81
2022/08/02 12:58:48;;;;;;;3.20;1.47;;;;;;;30.74;30.28;101527.38;6217533;23;20060;-84
2022/08/02 13:01:20;;;;;;;2.22;1.77;;;;;;;30.82;30.46;101529.84;6244361;23;20305;-82
2022/08/02 13:03:45;;;;;;;4.18;1.50;;;;;;;31.06;30.26;101521.34;6243361;23;20000;-82
2022/08/02 13:06:11;;;;;;;2.50;1.40;;;;;;;31.38;29.72;101521.59;6243786;22;20010;-82
2022/08/02 13:08:37;;;;;;;3.08;1.90;;;;;;;31.50;29.51;101534.34;6245086;23;20031;-82
2022/08/02 13:11:03;;;;;;;2.57;1.67;;;;;;;31.62;29.04;101526.88;6216930;23;20428;-81
2022/08/02 13:13:28;;;;;;;2.80;1.70;;;;;;;31.97;29.09;101522.72;6242845;23;20323;-84
2022/08/02 13:16:03;;;;;;;3.90;1.50;;;;;;;31.89;29.40;101513.59;6239752;22;20387;-82
2022/08/02 13:21:30;;;;;;;2.05;1.50;;;;;;;32.16;29.10;101516.06;6181235;23;20009;-82
2022/08/02 13:24:22;;;;;;;2.80;1.10;;;;;;;31.97;29.71;101503.31;6182869;23;20076;-82
2022/08/02 13:29:15;;;;;;;2.10;1.60;;;;;;;31.92;28.87;101501.72;6211972;23;20437;-81
2022/08/02 13:31:49;;;;;;;2.00;1.77;;;;;;;31.90;29.75;101509.63;6210137;23;20015;-83
2022/08/02 13:34:17;;;;;;;4.30;1.50;;;;;;;31.40;30.58;101488.00;6211483;23;20011;-82
2022/08/02 13:36:46;;;;;;;6.47;1.50;;;;;;;31.56;30.76;101499.56;6212266;23;20067;-82
2022/08/02 13:39:17;;;;;;;2.33;1.60;;;;;;;31.16;30.34;101487.47;6213205;23;20483;-82
2022/08/02 13:41:45;;;;;;;8.20;1.75;;;;;;;31.30;30.59;101486.78;6213961;23;20072;-83
2022/08/02 13:44:11;;;;;;;5.35;1.50;;;;;;;31.69;30.00;101493.69;6213076;23;20004;-82
2022/08/02 13:46:38;;;;;;;4.00;1.50;;;;;;;31.84;29.33;101492.59;6213031;23;20076;-84
2022/08/02 13:49:13;;;;;;;2.67;1.55;;;;;;;32.11;29.93;101505.38;6213553;23;20123;-82
2022/08/02 13:51:41;;;;;;;2.55;1.50;;;;;;;32.12;29.37;101495.88;6210841;23;20004;-82
2022/08/02 13:54:07;;;;;;;2.22;1.38;;;;;;;32.09;28.52;101491.09;6212653;23;20082;-82
2022/08/02 13:56:32;;;;;;;1.30;1.17;;;;;;;32.27;28.59;101486.44;6213031;23;20001;-82
2022/08/02 13:59:00;;;;;;;3.77;1.67;;;;;;;32.36;28.60;101480.50;6212782;23;20000;-83
2022/08/02 14:01:26;;;;;;;2.33;1.50;;;;;;;32.31;28.24;101480.91;6212398;23;20547;-82
2022/08/02 14:03:54;;;;;;;2.73;1.40;;;;;;;32.37;28.80;101482.09;6185297;23;20012;-83
2022/08/02 14:06:21;;;;;;;4.93;1.20;;;;;;;32.34;28.31;101488.41;6212525;23;20464;-82
2022/08/02 14:08:46;;;;;;;1.33;1.20;;;;;;;32.57;27.86;101474.22;6212337;23;20107;-82
2022/08/02 14:11:12;;;;;;;2.07;1.30;;;;;;;32.67;28.50;101474.59;6212090;23;20005;-82
2022/08/02 14:13:37;;;;;;;1.80;1.67;;;;;;;32.81;28.53;101479.34;6212021;23;20082;-82
2022/08/02 14:16:03;;;;;;;2.57;1.30;;;;;;;32.69;28.62;101470.22;6212757;23;20063;-84
2022/08/02 14:18:29;;;;;;;5.68;1.55;;;;;;;32.76;28.56;101466.69;6212621;23;20005;-82
2022/08/02 14:20:54;;;;;;;2.43;1.67;;;;;;;32.57;28.79;101468.66;6212728;23;20359;-82
2022/08/02 14:23:19;;;;;;;1.83;1.73;;;;;;;32.67;29.47;101464.31;6211633;23;20127;-83
2022/08/02 14:25:51;;;;;;;2.10;1.40;;;;;;;32.71;29.23;101456.75;6211801;23;20000;-83
2022/08/02 14:28:16;;;;;;;1.83;1.60;;;;;;;32.75;28.91;101457.56;6211082;23;20309;-82
2022/08/02 14:30:41;;;;;;;2.85;1.50;;;;;;;32.71;29.66;101453.19;6211048;23;20441;-82
2022/08/02 14:33:07;;;;;;;2.67;1.47;;;;;;;32.68;29.24;101452.03;6212413;23;20004;-83
2022/08/02 14:35:32;;;;;;;1.50;1.40;;;;;;;32.84;29.76;101448.09;6211775;23;20019;-84
2022/08/02 14:38:00;;;;;;;2.47;1.60;;;;;;;33.14;29.41;101449.63;6212871;23;20058;-83
2022/08/02 14:40:26;;;;;;;5.00;1.60;;;;;;;33.19;29.19;101449.22;6211697;23;20083;-83
2022/08/02 14:42:52;;;;;;;2.00;1.77;;;;;;;33.15;29.33;101443.66;6212481;23;20032;-83
2022/08/02 14:45:20;;;;;;;3.97;1.42;;;;;;;33.48;29.16;101436.06;6210971;23;20001;-84
2022/08/02 14:47:47;;;;;;;5.05;1.50;;;;;;;33.57;29.46;101434.81;6211750;23;20011;-84
2022/08/02 14:50:13;;;;;;;2.35;1.60;;;;;;;33.26;29.31;101438.06;6212385;23;20005;-84
2022/08/02 14:52:38;;;;;;;5.28;1.90;;;;;;;33.46;30.74;101441.22;6211782;23;20392;-82
2022/08/02 14:55:05;;;;;;;1.90;1.80;;;;;;;33.81;30.41;101433.94;6211223;23;20008;-82
2022/08/02 14:57:33;;;;;;;4.55;2.00;;;;;;;33.90;29.61;101433.50;6212444;23;20012;-82
2022/08/02 15:00:00;;;;;;;5.88;1.95;;;;;;;33.87;29.43;101427.97;6211929;23;20015;-83
2022/08/02 15:02:28;;;;;;;3.67;1.67;;;;;;;34.01;30.02;101429.88;6185727;23;20495;-83
2022/08/02 15:04:54;;;;;;;3.13;1.63;;;;;;;34.05;28.75;101437.00;6211750;23;20247;-83
2022/08/02 15:07:19;;;;;;;5.15;2.00;;;;;;;34.10;28.73;101419.09;6212418;23;20012;-83
2022/08/02 15:09:44;;;;;;;1.87;1.60;;;;;;;34.24;28.42;101420.97;6212462;23;19997;-83
2022/08/02 15:12:13;;;;;;;4.20;1.60;;;;;;;33.95;29.44;101423.94;6210100;23;20009;-82
2022/08/02 15:14:39;;;;;;;5.03;1.77;;;;;;;33.95;28.75;101410.88;6209943;23;20015;-81
2022/08/02 15:17:05;;;;;;;8.75;2.30;;;;;;;33.97;29.83;101419.56;6211712;23;20004;-83
2022/08/02 15:19:31;;;;;;;2.50;2.10;;;;;;;34.34;29.26;101419.31;6211632;23;20036;-82
2022/08/02 15:21:56;;;;;;;2.83;1.70;;;;;;;34.53;28.66;101416.00;6211503;23;20004;-83
2022/08/02 15:24:22;;;;;;;4.00;1.70;;;;;;;34.32;28.87;101416.94;6211594;23;20070;-83
2022/08/02 15:26:49;;;;;;;2.63;1.83;;;;;;;34.69;29.01;101406.34;6211906;23;20020;-83
2022/08/02 15:29:15;;;;;;;7.35;2.00;;;;;;;34.59;28.49;101408.03;6210876;23;20009;-83
2022/08/02 15:31:41;;;;;;;5.33;1.77;;;;;;;34.34;29.02;101408.19;6212635;23;20001;-83
2022/08/02 15:34:07;;;;;;;6.27;2.27;;;;;;;34.95;28.67;101399.34;6211423;23;20683;-83
2022/08/02 15:36:32;;;;;;;6.13;1.90;;;;;;;35.21;28.60;101410.19;6211857;23;20016;-83
2022/08/02 15:38:58;;;;;;;3.97;2.07;;;;;;;35.14;27.49;101400.72;6211992;23;20268;-83
2022/08/02 15:41:23;;;;;;;4.47;1.63;;;;;;;34.88;28.37;101402.94;6211890;23;20050;-83
2022/08/02 15:43:49;;;;;;;2.70;1.80;;;;;;;34.94;28.68;101406.13;6211431;23;20428;-84
2022/08/02 15:46:14;;;;;;;6.07;2.00;;;;;;;34.53;28.38;101392.97;6210238;23;20453;-83
2022/08/02 15:48:40;;;;;;;3.57;1.70;;;;;;;34.63;28.97;101394.06;6212493;23;20017;-84
2022/08/02 15:51:05;;;;;;;3.63;1.83;;;;;;;34.57;29.94;101402.84;6212474;23;20005;-84
2022/08/02 15:53:30;;;;;;;2.77;1.70;;;;;;;34.75;28.76;101399.13;6210882;23;20357;-81
2022/08/02 15:55:57;;;;;;;4.33;1.97;;;;;;;34.84;28.21;101401.41;6211868;23;20248;-81
2022/08/02 15:58:23;;;;;;;6.10;1.80;;;;;;;34.88;28.30;101402.94;6212949;23;20046;-82
2022/08/02 16:00:48;;;;;;;3.40;2.17;;;;;;;35.04;27.95;101393.28;6214900;23;20275;-83
2022/08/02 16:03:13;;;;;;;5.77;1.90;;;;;;;35.33;28.21;101393.72;6213938;23;20000;-82
2022/08/02 16:05:39;;;;;;;3.37;1.90;;;;;;;35.08;27.63;101391.25;6213595;23;20076;-83
2022/08/02 16:08:04;;;;;;;6.68;2.25;;;;;;;34.92;28.45;101389.00;6214966;23;20055;-83
2022/08/02 16:10:29;;;;;;;4.37;1.80;;;;;;;34.28;28.52;101382.81;6213385;23;20017;-83
2022/08/02 16:13:48;;;;;;;1.70;1.60;;;;;;;34.37;29.29;101385.13;6213938;23;20035;-84
2022/08/02 16:15:43;;;;;;;6.32;1.90;;;;;;;34.65;29.35;101380.53;6210552;23;20023;-82
2022/08/02 16:18:08;;;;;;;4.50;1.73;;;;;;;34.45;29.71;101391.44;6214029;23;20371;-83
2022/08/02 16:20:34;;;;;;;6.23;2.10;;;;;;;34.55;29.04;101388.56;6213959;23;20000;-83
2022/08/02 16:22:59;;;;;;;5.05;2.00;;;;;;;34.67;29.10;101386.50;6186790;23;20062;-82
2022/08/02 16:25:24;;;;;;;2.93;1.97;;;;;;;34.79;28.82;101383.19;6212501;23;20333;-83
2022/08/02 16:27:50;;;;;;;4.03;1.97;;;;;;;34.75;28.33;101385.19;6213105;23;20016;-82
2022/08/02 16:30:15;;;;;;;5.80;1.80;;;;;;;34.81;28.03;101382.75;6214254;23;20005;-82
2022/08/02 16:32:40;;;;;;;3.57;1.60;;;;;;;35.02;28.93;101395.69;6212793;23;20008;-82
2022/08/02 16:35:06;;;;;;;4.77;2.00;;;;;;;34.75;28.62;101384.44;6209990;23;20008;-83
2022/08/02 16:37:31;;;;;;;5.40;2.30;;;;;;;34.79;29.16;101385.16;6212452;23;20008;-83
2022/08/02 16:39:56;;;;;;;6.20;2.47;;;;;;;34.77;29.06;101379.25;6213391;23;20008;-83
2022/08/02 16:42:21;;;;;;;9.03;1.90;;;;;;;34.98;29.53;101373.44;6212342;23;20004;-83
2022/08/02 16:44:48;;;;;;;2.17;1.80;;;;;;;35.00;29.21;101378.63;6212552;23;20581;-82
2022/08/02 16:47:13;;;;;;;3.45;1.90;;;;;;;35.24;29.38;101384.31;6213123;23;20032;-82
2022/08/02 16:49:39;;;;;;;2.87;2.13;;;;;;;35.10;28.71;101372.13;6212572;23;20361;-83
2022/08/02 16:52:05;;;;;;;5.45;2.20;;;;;;;34.77;29.39;101374.44;6213306;23;20000;-83
2022/08/02 16:54:30;;;;;;;7.87;1.97;;;;;;;34.81;29.38;101374.41;6212962;23;20031;-83
2022/08/02 16:56:55;;;;;;;6.40;1.67;;;;;;;34.82;29.70;101376.78;6213048;23;20012;-83
2022/08/02 16:59:21;;;;;;;3.60;2.07;;;;;;;35.02;29.38;101373.44;6212801;23;20007;-83
2022/08/02 17:01:46;;;;;;;4.40;1.90;;;;;;;35.06;29.25;101373.38;6212136;23;19996;-83
2022/08/02 17:04:11;;;;;;;2.83;2.20;;;;;;;34.78;29.49;101366.91;6212062;23;20019;-83
2022/08/02 17:06:37;;;;;;;3.23;1.83;;;;;;;34.82;29.41;101365.66;6212253;23;20009;-83
2022/08/02 17:09:02;;;;;;;6.37;2.17;;;;;;;34.56;30.39;101362.34;6210899;23;20005;-84
2022/08/02 17:11:28;;;;;;;3.03;2.10;;;;;;;34.70;29.87;101357.81;6212984;23;20032;-83
2022/08/02 17:13:53;;;;;;;4.80;2.27;;;;;;;34.36;29.90;101355.72;6212366;23;20243;-84
2022/08/02 17:16:18;;;;;;;3.07;1.97;;;;;;;34.26;31.10;101358.22;6211957;23;20008;-84
2022/08/02 17:18:43;;;;;;;6.87;2.10;;;;;;;34.45;30.42;101355.28;6212120;23;20356;-83
2022/08/02 17:21:09;;;;;;;7.97;2.23;;;;;;;34.17;30.36;101363.44;6213333;23;20090;-83
2022/08/02 17:23:34;;;;;;;5.10;2.30;;;;;;;34.00;30.97;101358.81;6213446;23;20401;-83
2022/08/02 17:25:59;;;;;;;7.28;1.85;;;;;;;33.92;30.78;101356.09;6212459;23;20012;-83
2022/08/02 17:28:25;;;;;;;2.70;1.87;;;;;;;33.61;31.73;101364.16;6212804;23;20008;-83
2022/08/02 17:30:50;;;;;;;4.47;1.90;;;;;;;33.76;31.41;101358.56;6212026;23;20756;-83
2022/08/02 17:33:15;;;;;;;3.17;2.00;;;;;;;33.68;31.11;101358.59;6211287;23;20036;-84
2022/08/02 17:35:43;;;;;;;4.23;2.10;;;;;;;33.52;32.05;101366.63;6212407;23;20000;-84
2022/08/02 17:38:08;;;;;;;4.03;2.17;;;;;;;33.16;32.38;101367.50;6212897;23;20356;-83
2022/08/02 17:40:33;;;;;;;4.85;2.20;;;;;;;33.22;32.51;101354.03;6212161;23;20008;-83
2022/08/02 17:42:59;;;;;;;4.90;2.33;;;;;;;33.12;32.83;101355.66;6213069;23;20004;-83
2022/08/02 17:45:24;;;;;;;6.97;1.87;;;;;;;32.93;33.03;101365.22;6211817;23;20020;-82
2022/08/02 17:47:50;;;;;;;5.00;2.03;;;;;;;32.23;33.58;101362.84;6212480;23;20046;-82
2022/08/02 17:50:15;;;;;;;7.33;2.30;;;;;;;31.70;34.70;101363.16;6212652;23;20008;-83
2022/08/02 17:52:41;;;;;;;2.40;1.97;;;;;;;31.21;35.91;101370.88;6212229;23;20276;-83
2022/08/02 17:55:09;;;;;;;5.73;2.17;;;;;;;30.64;36.91;101363.78;6210180;23;20476;-82
2022/08/02 17:57:35;;;;;;;4.15;1.85;;;;;;;30.48;37.57;101360.47;6212051;23;20019;-83
2022/08/02 18:00:01;;;;;;;7.05;1.80;;;;;;;30.34;37.65;101359.16;6212552;23;20010;-83
2022/08/02 18:02:26;;;;;;;4.22;1.50;;;;;;;30.11;38.06;101361.34;6212091;23;20005;-83
2022/08/02 18:04:53;;;;;;;4.43;1.53;;;;;;;30.02;38.29;101353.34;6211749;23;20007;-84
2022/08/02 18:07:19;;;;;;;3.30;2.00;;;;;;;29.75;39.07;101364.47;6212110;23;20009;-82
2022/08/02 18:09:45;;;;;;;4.53;1.85;;;;;;;29.64;39.40;101353.31;6212000;23;20012;-85
2022/08/02 18:12:12;;;;;;;2.90;1.60;;;;;;;29.49;40.01;101355.09;6210881;23;20009;-83
2022/08/02 18:14:39;;;;;;;8.57;1.90;;;;;;;29.45;39.79;101357.81;6212047;23;20228;-82
2022/08/02 18:17:05;;;;;;;5.65;1.73;;;;;;;29.18;40.90;101351.53;6211319;23;20008;-83
2022/08/02 18:19:31;;;;;;;4.13;1.75;;;;;;;29.16;41.02;101356.63;6212051;23;20035;-83
2022/08/02 18:21:57;;;;;;;8.20;1.58;;;;;;;29.08;41.31;101350.22;6212016;23;19996;-83
2022/08/02 18:24:22;;;;;;;2.65;1.55;;;;;;;29.01;41.38;101353.69;6183791;23;20019;-84
2022/08/02 18:26:49;;;;;;;8.37;1.77;;;;;;;28.87;41.78;101367.28;6212140;23;20083;-83
2022/08/02 18:29:14;;;;;;;4.95;1.70;;;;;;;28.82;42.15;101362.06;6210843;23;20093;-83
2022/08/02 18:31:39;;;;;;;4.43;1.80;;;;;;;28.74;42.78;101363.13;6211816;23;20365;-82
2022/08/02 18:34:07;;;;;;;6.60;1.50;;;;;;;28.63;42.97;101368.44;6184458;23;20030;-82
2022/08/02 18:36:32;;;;;;;3.72;1.60;;;;;;;28.53;43.16;101367.91;6211125;23;20320;-84
2022/08/02 18:39:00;;;;;;;5.10;1.55;;;;;;;28.53;43.34;101362.38;6211915;23;20024;-83
2022/08/02 18:41:25;;;;;;;5.45;1.58;;;;;;;28.39;43.76;101364.91;6211024;23;20082;-85
2022/08/02 18:43:50;;;;;;;4.90;1.60;;;;;;;28.40;44.60;101355.47;6212146;23;20004;-82
2022/08/02 18:46:18;;;;;;;3.47;1.80;;;;;;;28.23;44.31;101357.56;6211243;23;20050;-85
2022/08/02 18:48:44;;;;;;;7.80;1.65;;;;;;;28.18;44.62;101357.84;6210809;23;20008;-85
2022/08/02 18:51:10;;;;;;;6.55;1.60;;;;;;;28.05;44.95;101354.44;6211548;23;20000;-85
2022/08/02 18:53:36;;;;;;;5.53;1.60;;;;;;;27.95;46.45;101352.31;6211789;23;20338;-86
2022/08/02 18:56:04;;;;;;;4.32;1.98;;;;;;;27.75;46.07;101352.31;6212006;23;20020;-86
2022/08/02 18:58:30;;;;;;;3.60;1.60;;;;;;;27.68;46.20;101348.66;6212364;23;20008;-86
2022/08/02 19:00:56;;;;;;;8.40;1.70;;;;;;;27.58;46.71;101347.28;6211828;23;20009;-86
2022/08/02 19:03:22;;;;;;;3.83;1.93;;;;;;;27.54;48.11;101351.91;6211332;23;20310;-85
2022/08/02 19:05:51;;;;;;;3.70;1.60;;;;;;;27.40;46.42;101338.59;6211473;23;20012;-86
2022/08/02 19:08:16;;;;;;;3.20;1.42;;;;;;;27.27;46.37;101343.47;6212041;23;20420;-86
2022/08/02 19:10:43;;;;;;;3.60;1.70;;;;;;;27.22;48.03;101352.78;6212307;23;20009;-86
2022/08/02 19:13:09;;;;;;;4.27;1.77;;;;;;;27.20;48.02;101347.66;6211307;23;20087;-86
2022/08/02 19:15:35;;;;;;;3.83;1.80;;;;;;;27.08;47.25;101338.72;6211277;23;20416;-86
2022/08/02 19:18:01;;;;;;;2.30;1.67;;;;;;;26.98;48.02;101346.38;6211578;23;20014;-86
2022/08/02 19:20:31;;;;;;;7.55;1.85;;;;;;;26.85;49.34;101350.38;6177818;23;20009;-86
2022/08/02 19:22:56;;;;;;;3.57;1.40;;;;;;;26.75;48.38;101348.94;6210496;23;20004;-86
2022/08/02 19:25:22;;;;;;;6.20;1.80;;;;;;;26.63;50.66;101340.81;6211962;23;20709;-86
2022/08/02 19:27:59;;;;;;;5.32;1.90;;;;;;;26.52;49.44;101352.34;6214419;23;20115;-86
2022/08/02 19:30:25;;;;;;;10.18;1.77;;;;;;;26.54;49.96;101357.47;6221053;23;20021;-87
2022/08/02 19:32:51;;;;;;;4.60;1.67;;;;;;;26.35;50.56;101356.25;6230840;23;20017;-86
2022/08/02 19:35:19;;;;;;;4.50;1.48;;;;;;;26.29;50.93;101355.72;6237716;23;20004;-86
2022/08/02 19:37:44;;;;;;;5.72;1.45;;;;;;;26.24;51.88;101357.94;6229565;23;20005;-84
2022/08/02 19:40:19;;;;;;;6.83;1.63;;;;;;;26.13;52.56;101352.94;6235360;23;20005;-85
2022/08/02 19:42:48;;;;;;;6.38;1.75;;;;;;;25.99;52.99;101350.59;6239386;22;19996;-85
2022/08/02 19:45:15;;;;;;;7.07;2.00;;;;;;;25.94;53.06;101355.53;6230174;23;20007;-84
2022/08/02 19:47:41;;;;;;;3.97;1.63;;;;;;;25.98;51.56;101357.25;6204005;23;20013;-83
2022/08/02 19:50:11;;;;;;;7.10;1.80;;;;;;;25.72;54.26;101363.19;6228383;23;20009;-84
2022/08/02 19:52:40;;;;;;;5.05;1.67;;;;;;;25.67;55.05;101380.69;6220454;23;20000;-84
2022/08/02 19:55:09;;;;;;;9.13;1.63;;;;;;;25.53;53.63;101372.84;6212001;23;20062;-84
2022/08/02 19:57:38;;;;;;;7.70;1.92;;;;;;;25.49;53.97;101377.44;6213363;23;20453;-84
2022/08/02 20:00:05;;;;;;;5.23;2.00;;;;;;;25.39;54.30;101372.38;6213108;23;20071;-85
2022/08/02 20:02:30;;;;;;;11.70;1.73;;;;;;;25.33;54.21;101373.78;6211561;23;20240;-85
2022/08/02 20:04:56;;;;;;;4.88;2.05;;;;;;;25.23;54.86;101373.09;6211914;23;20012;-84
2022/08/02 20:07:22;;;;;;;10.17;2.13;;;;;;;25.05;55.81;101371.75;6213887;23;20009;-84
2022/08/02 20:09:50;;;;;;;4.47;1.90;;;;;;;25.11;55.26;101381.34;6219130;23;20012;-85
2022/08/02 20:12:17;;;;;;;9.63;1.90;;;;;;;24.98;55.72;101379.78;6220237;23;20005;-85
2022/08/02 20:14:42;;;;;;;5.50;2.07;;;;;;;24.94;56.42;101376.91;6220433;23;20251;-84
2022/08/02 20:17:10;;;;;;;9.13;1.80;;;;;;;24.76;56.96;101379.06;6222670;23;20012;-87
2022/08/02 20:19:38;;;;;;;6.00;1.90;;;;;;;24.67;59.17;101379.16;6224910;23;19996;-89
2022/08/02 20:22:03;;;;;;;6.73;2.13;;;;;;;24.61;59.17;101381.31;6218384;23;20315;-89
2022/08/02 20:24:28;;;;;;;10.32;2.33;;;;;;;24.58;60.28;101395.69;6213209;23;20392;-89
2022/08/02 20:26:57;;;;;;;5.07;2.10;;;;;;;24.52;60.54;101397.03;6211738;23;20012;-88
2022/08/02 20:29:22;;;;;;;11.27;2.20;;;;;;;24.45;61.64;101397.59;6211901;23;20008;-87
2022/08/02 20:31:47;;;;;;;8.90;2.27;;;;;;;24.43;62.16;101391.66;6212522;23;20000;-88
2022/08/02 20:34:13;;;;;;;4.43;2.13;;;;;;;24.38;62.32;101400.09;6210087;23;20038;-88
2022/08/02 20:36:38;;;;;;;7.90;2.08;;;;;;;24.33;62.73;101392.13;6185607;23;20031;-88
2022/08/02 20:39:04;;;;;;;10.63;2.77;;;;;;;24.28;63.63;101409.56;6211699;23;20054;-88
2022/08/02 20:41:31;;;;;;;4.80;2.20;;;;;;;24.20;64.28;101407.69;6210268;23;20088;-88
2022/08/02 20:43:56;;;;;;;6.80;2.50;;;;;;;24.00;65.96;101393.72;6211729;23;20035;-88
2022/08/02 20:46:21;;;;;;;6.70;2.43;;;;;;;24.02;65.12;101404.31;6212735;23;20043;-88
2022/08/02 20:48:47;;;;;;;7.23;2.20;;;;;;;23.96;65.53;101400.97;6212731;23;20600;-88